Time;durP1;ratioP1;P1;durP2;ratioP2;P2;SDS_P1;SDS_P2;PMS_P1;PMS_P2;Temp;Humidity;BMP_temperature;BMP_pressure;BME280_temperature;BME280_humidity;BME280_pressure;Samples;Min_cycle;Max_cycle;Signal;HPM_P1;HPM_P2
2023/03/09 00:01:19;;;;;;;;;;;13.90;99.90;;;;;;5053777;28;19916;-72
2023/03/09 00:03:45;;;;;;;;;;;13.90;99.90;;;;;;5053827;28;19983;-72
2023/03/09 00:06:11;;;;;;;;;;;13.90;99.90;;;;;;5053448;28;20366;-72
2023/03/09 00:08:36;;;;;;;;;;;13.90;99.90;;;;;;5053458;28;20001;-72
2023/03/09 00:11:03;;;;;;;;;;;13.90;99.90;;;;;;5053266;28;19908;-73
2023/03/09 00:13:29;;;;;;;;;;;13.90;99.90;;;;;;5053866;28;20341;-72
2023/03/09 00:15:55;;;;;;;;;;;13.90;99.90;;;;;;5053951;28;19909;-72
2023/03/09 00:18:21;;;;;;;;;;;13.90;99.90;;;;;;5052035;28;19916;-72
2023/03/09 00:20:47;;;;;;;;;;;14.00;99.90;;;;;;5052486;28;20480;-72
2023/03/09 00:23:13;;;;;;;;;;;14.00;99.90;;;;;;5053190;28;19917;-72
2023/03/09 00:25:39;;;;;;;;;;;14.00;99.90;;;;;;5053615;28;19915;-74
2023/03/09 00:28:05;;;;;;;;;;;14.00;99.90;;;;;;5053271;28;19909;-75
2023/03/09 00:30:31;;;;;;;;;;;14.00;99.90;;;;;;5052048;28;19908;-75
2023/03/09 00:32:56;;;;;;;;;;;13.90;99.90;;;;;;5052838;28;19912;-74
2023/03/09 00:35:22;;;;;;;;;;;14.00;99.90;;;;;;5053188;28;20139;-72
2023/03/09 00:37:48;;;;;;;;;;;14.00;99.90;;;;;;5052806;28;19912;-71
2023/03/09 00:40:14;;;;;;;;;;;14.00;99.90;;;;;;5053547;28;19919;-72
2023/03/09 00:42:43;;;;;;;;;;;13.90;99.90;;;;;;5053110;28;19931;-72
2023/03/09 00:45:09;;;;;;;;;;;14.00;99.90;;;;;;5053006;28;19919;-74
2023/03/09 00:47:35;;;;;;;;;;;14.00;99.90;;;;;;5053097;28;19912;-74
2023/03/09 00:50:01;;;;;;;;;;;13.90;99.90;;;;;;5053097;28;19958;-74
2023/03/09 00:52:27;;;;;;;;;;;13.90;99.90;;;;;;5052956;28;19915;-72
2023/03/09 00:54:53;;;;;;;;;;;13.90;99.90;;;;;;5053091;28;19913;-72
2023/03/09 00:57:22;;;;;;;;;;;13.90;99.90;;;;;;5053221;28;19913;-72
2023/03/09 00:59:47;;;;;;;;;;;14.00;99.90;;;;;;5051528;28;19909;-74
2023/03/09 01:02:13;;;;;;;;;;;13.90;99.90;;;;;;5053386;28;19920;-71
2023/03/09 01:04:39;;;;;;;;;;;13.80;99.90;;;;;;5050719;28;19913;-72
2023/03/09 01:07:05;;;;;;;;;;;13.80;99.90;;;;;;5051372;28;19962;-72
2023/03/09 01:09:30;;;;;;;;;;;13.70;99.90;;;;;;5052039;28;19909;-73
2023/03/09 01:11:56;;;;;;;;;;;13.70;99.90;;;;;;5053002;28;19996;-74
2023/03/09 01:14:22;;;;;;;;;;;13.80;99.90;;;;;;5052762;28;20007;-72
2023/03/09 01:16:47;;;;;;;;;;;13.80;99.90;;;;;;5053039;28;19917;-73
2023/03/09 01:19:13;;;;;;;;;;;13.80;99.90;;;;;;5052562;28;19923;-71
2023/03/09 01:21:39;;;;;;;;;;;13.70;99.90;;;;;;5051582;28;19916;-72
2023/03/09 01:24:05;;;;;;;;;;;13.70;99.90;;;;;;5055238;28;19913;-73
2023/03/09 01:26:34;;;;;;;;;;;13.80;99.90;;;;;;5056787;28;19909;-73
2023/03/09 01:29:01;;;;;;;;;;;13.70;99.90;;;;;;5056103;28;19954;-71
2023/03/09 01:31:29;;;;;;;;;;;13.80;99.90;;;;;;5056355;28;19909;-73
2023/03/09 01:33:55;;;;;;;;;;;13.80;99.90;;;;;;5056433;28;20006;-74
2023/03/09 01:36:21;;;;;;;;;;;13.70;99.90;;;;;;5056543;28;19908;-72
2023/03/09 01:38:51;;;;;;;;;;;13.60;99.90;;;;;;5056286;28;19909;-74
2023/03/09 01:41:18;;;;;;;;;;;13.60;99.90;;;;;;5056379;28;19913;-73
2023/03/09 01:43:44;;;;;;;;;;;13.50;99.90;;;;;;5056098;28;19917;-74
2023/03/09 01:46:16;;;;;;;;;;;13.50;99.90;;;;;;5056637;28;19916;-72
2023/03/09 01:48:42;;;;;;;;;;;13.60;99.90;;;;;;5056164;28;20087;-72
2023/03/09 01:51:08;;;;;;;;;;;13.50;99.90;;;;;;5056286;28;20298;-73
2023/03/09 01:53:34;;;;;;;;;;;13.40;99.90;;;;;;5056127;28;19909;-73
2023/03/09 01:56:01;;;;;;;;;;;13.40;99.90;;;;;;5055595;28;20352;-75
2023/03/09 01:58:35;;;;;;;;;;;13.30;99.90;;;;;;5055798;28;19915;-72
2023/03/09 02:01:00;;;;;;;;;;;13.30;99.90;;;;;;5056271;28;19995;-72
2023/03/09 02:03:37;;;;;;;;;;;13.20;99.90;;;;;;5055524;28;19948;-72
2023/03/09 02:06:09;;;;;;;;;;;13.10;99.90;;;;;;5055550;28;19913;-73
2023/03/09 02:08:36;;;;;;;;;;;13.00;99.90;;;;;;5055517;28;20070;-72
2023/03/09 02:11:04;;;;;;;;;;;13.00;99.90;;;;;;5055829;28;19908;-75
2023/03/09 02:13:31;;;;;;;;;;;12.90;99.90;;;;;;5055952;28;19913;-74
2023/03/09 02:15:57;;;;;;;;;;;12.90;99.90;;;;;;5055639;28;20259;-72
2023/03/09 02:18:24;;;;;;;;;;;12.90;99.90;;;;;;5053753;28;19935;-72
2023/03/09 02:21:22;;;;;;;;;;;12.90;99.90;;;;;;5055655;28;19975;-73
2023/03/09 02:23:50;;;;;;;;;;;12.80;99.90;;;;;;5042515;28;19916;-72
2023/03/09 02:26:28;;;;;;;;;;;12.70;99.90;;;;;;5055547;28;19913;-72
2023/03/09 02:28:56;;;;;;;;;;;12.70;99.90;;;;;;5053974;28;19944;-73
2023/03/09 02:31:22;;;;;;;;;;;12.60;99.90;;;;;;5054447;28;20322;-71
2023/03/09 02:33:48;;;;;;;;;;;12.60;99.90;;;;;;5055099;28;19912;-74
2023/03/09 02:36:14;;;;;;;;;;;12.60;99.90;;;;;;5054999;28;19916;-72
2023/03/09 02:38:40;;;;;;;;;;;12.70;99.90;;;;;;5054958;28;20019;-72
2023/03/09 02:41:15;;;;;;;;;;;12.70;99.90;;;;;;5055112;28;19932;-75
2023/03/09 02:43:44;;;;;;;;;;;12.70;99.90;;;;;;5054954;28;19920;-72
2023/03/09 02:46:12;;;;;;;;;;;12.50;99.90;;;;;;5055007;28;19908;-71
2023/03/09 02:48:38;;;;;;;;;;;12.40;99.90;;;;;;5054740;28;20301;-73
2023/03/09 02:51:06;;;;;;;;;;;12.40;99.90;;;;;;5053233;28;19968;-74
2023/03/09 02:53:32;;;;;;;;;;;12.40;99.90;;;;;;5055097;28;19970;-72
2023/03/09 02:55:57;;;;;;;;;;;12.50;99.90;;;;;;5054673;28;19909;-72
2023/03/09 02:58:23;;;;;;;;;;;12.50;99.90;;;;;;5054669;28;19994;-72
2023/03/09 03:00:49;;;;;;;;;;;12.50;99.90;;;;;;5054748;28;19909;-72
2023/03/09 03:03:24;;;;;;;;;;;12.40;99.90;;;;;;5054798;28;20355;-74
2023/03/09 03:05:50;;;;;;;;;;;12.40;99.90;;;;;;5054420;28;19995;-71
2023/03/09 03:08:16;;;;;;;;;;;12.40;99.90;;;;;;5054475;28;19908;-71
2023/03/09 03:10:41;;;;;;;;;;;12.50;99.90;;;;;;5053568;28;19988;-72
2023/03/09 03:13:15;;;;;;;;;;;12.50;99.90;;;;;;5054564;28;20038;-73
2023/03/09 03:15:40;;;;;;;;;;;12.50;99.90;;;;;;5055447;28;20390;-71
2023/03/09 03:18:06;;;;;;;;;;;12.50;99.90;;;;;;5054233;28;19970;-72
2023/03/09 03:20:32;;;;;;;;;;;12.50;99.90;;;;;;5054654;28;19992;-72
2023/03/09 03:22:58;;;;;;;;;;;12.50;99.90;;;;;;5053976;28;19944;-72
2023/03/09 03:25:24;;;;;;;;;;;12.60;99.90;;;;;;5054611;28;19923;-73
2023/03/09 03:27:49;;;;;;;;;;;12.60;99.90;;;;;;5054195;28;19909;-73
2023/03/09 03:30:15;;;;;;;;;;;12.60;99.90;;;;;;5054114;28;19935;-72
2023/03/09 03:32:41;;;;;;;;;;;12.60;99.90;;;;;;5054485;28;19909;-71
2023/03/09 03:35:07;;;;;;;;;;;12.70;99.90;;;;;;5053914;28;20339;-71
2023/03/09 03:37:33;;;;;;;;;;;12.70;99.90;;;;;;5053914;28;19958;-73
2023/03/09 03:39:59;;;;;;;;;;;12.80;99.90;;;;;;5054316;28;19909;-72
2023/03/09 03:42:24;;;;;;;;;;;12.70;99.90;;;;;;5054577;28;19951;-71
2023/03/09 03:44:50;;;;;;;;;;;12.80;99.90;;;;;;5053009;28;19912;-74
2023/03/09 03:47:16;;;;;;;;;;;12.70;99.90;;;;;;5054266;28;20236;-72
2023/03/09 03:49:42;;;;;;;;;;;12.80;99.90;;;;;;5053968;28;20265;-72
2023/03/09 03:52:08;;;;;;;;;;;12.80;99.90;;;;;;5054146;28;20386;-72
2023/03/09 03:54:34;;;;;;;;;;;12.80;99.90;;;;;;5054166;28;20007;-75
2023/03/09 03:57:01;;;;;;;;;;;12.80;99.90;;;;;;5053673;28;19945;-71
2023/03/09 03:59:26;;;;;;;;;;;12.80;99.90;;;;;;5053685;28;19912;-74
2023/03/09 04:01:52;;;;;;;;;;;12.80;99.90;;;;;;5052848;28;20283;-72
2023/03/09 04:04:18;;;;;;;;;;;12.80;99.90;;;;;;5053545;28;19920;-72
2023/03/09 04:06:44;;;;;;;;;;;12.80;99.90;;;;;;5053765;28;20339;-72
2023/03/09 04:09:10;;;;;;;;;;;12.70;99.90;;;;;;5053557;28;19935;-72
2023/03/09 04:11:36;;;;;;;;;;;12.80;99.90;;;;;;5054424;28;19971;-72
2023/03/09 04:14:02;;;;;;;;;;;12.80;99.90;;;;;;5053730;28;20370;-72
2023/03/09 04:16:27;;;;;;;;;;;12.80;99.90;;;;;;5054025;28;19916;-72
2023/03/09 04:18:56;;;;;;;;;;;12.80;99.90;;;;;;5053501;28;19979;-75
2023/03/09 04:21:22;;;;;;;;;;;12.90;99.90;;;;;;5053132;28;20030;-72
2023/03/09 04:23:48;;;;;;;;;;;12.80;99.90;;;;;;5053501;28;19921;-72
2023/03/09 04:26:14;;;;;;;;;;;12.90;99.90;;;;;;5053190;28;20392;-72
2023/03/09 04:28:40;;;;;;;;;;;12.90;99.90;;;;;;5052308;28;19909;-74
2023/03/09 04:31:05;;;;;;;;;;;12.80;99.90;;;;;;5053473;28;19951;-73
2023/03/09 04:33:31;;;;;;;;;;;12.80;99.90;;;;;;5053238;28;19909;-73
2023/03/09 04:35:57;;;;;;;;;;;12.90;99.90;;;;;;5054112;28;19917;-72
2023/03/09 04:38:23;;;;;;;;;;;12.90;99.90;;;;;;5054006;28;19951;-72
2023/03/09 04:40:58;;;;;;;;;;;;;;;;;;;;;
2023/03/09 04:43:24;;;;;;;;;;;12.90;99.90;;;;;;5051682;28;19913;-72
2023/03/09 04:45:50;;;;;;;;;;;12.80;99.90;;;;;;5052805;28;19994;-73
2023/03/09 04:48:16;;;;;;;;;;;12.80;99.90;;;;;;5053093;28;19986;-72
2023/03/09 04:50:43;;;;;;;;;;;12.90;99.90;;;;;;5051974;28;20390;-72
2023/03/09 04:53:09;;;;;;;;;;;13.00;99.90;;;;;;5052881;28;19916;-73
2023/03/09 04:55:36;;;;;;;;;;;13.10;99.90;;;;;;5052252;28;20002;-74
2023/03/09 04:58:02;;;;;;;;;;;13.00;99.90;;;;;;5057170;28;20349;-72
2023/03/09 05:00:27;;;;;;;;;;;13.00;99.90;;;;;;5056087;28;19908;-72
2023/03/09 05:02:53;;;;;;;;;;;13.00;99.90;;;;;;5055526;28;20394;-73
2023/03/09 05:05:19;;;;;;;;;;;12.90;99.90;;;;;;5057609;28;19912;-74
2023/03/09 05:07:45;;;;;;;;;;;13.00;99.90;;;;;;5057553;28;19958;-76
2023/03/09 05:10:11;;;;;;;;;;;13.00;99.90;;;;;;5057040;28;20008;-73
2023/03/09 05:12:37;;;;;;;;;;;13.10;99.90;;;;;;5057183;28;19909;-72
2023/03/09 05:15:03;;;;;;;;;;;13.10;99.90;;;;;;5056931;28;19918;-72
2023/03/09 05:17:30;;;;;;;;;;;13.10;99.90;;;;;;5056301;28;19924;-73
2023/03/09 05:19:55;;;;;;;;;;;13.10;99.90;;;;;;5056759;28;19909;-74
2023/03/09 05:22:21;;;;;;;;;;;13.00;99.90;;;;;;5056619;28;19924;-72
2023/03/09 05:24:47;;;;;;;;;;;13.10;99.90;;;;;;5055612;28;20309;-73
2023/03/09 05:27:13;;;;;;;;;;;13.00;99.90;;;;;;5056880;28;20396;-72
2023/03/09 05:29:39;;;;;;;;;;;12.90;99.90;;;;;;5056641;28;20270;-72
2023/03/09 05:32:05;;;;;;;;;;;12.80;99.90;;;;;;5056523;28;19916;-72
2023/03/09 05:34:31;;;;;;;;;;;12.80;99.90;;;;;;5056657;28;19909;-72
2023/03/09 05:36:57;;;;;;;;;;;12.70;99.90;;;;;;5056511;28;20285;-72
2023/03/09 05:39:23;;;;;;;;;;;12.60;99.90;;;;;;5056368;28;19909;-73
2023/03/09 05:41:48;;;;;;;;;;;12.60;99.90;;;;;;5056455;28;19923;-74
2023/03/09 05:44:14;;;;;;;;;;;12.50;99.90;;;;;;5056268;28;20007;-72
2023/03/09 05:46:40;;;;;;;;;;;12.40;99.90;;;;;;5056218;28;20281;-74
2023/03/09 05:49:05;;;;;;;;;;;12.40;99.90;;;;;;5055851;28;19962;-71
2023/03/09 05:51:31;;;;;;;;;;;12.40;99.90;;;;;;5056118;28;19964;-72
2023/03/09 05:53:57;;;;;;;;;;;12.30;99.90;;;;;;5055132;28;20015;-72
2023/03/09 05:56:23;;;;;;;;;;;12.20;99.90;;;;;;5054815;28;20363;-74
2023/03/09 05:58:52;;;;;;;;;;;12.10;99.90;;;;;;5054718;28;19946;-73
2023/03/09 06:01:22;;;;;;;;;;;12.10;99.90;;;;;;5055630;28;19909;-73
2023/03/09 06:03:48;;;;;;;;;;;12.10;99.90;;;;;;5055965;28;19917;-73
2023/03/09 06:06:14;;;;;;;;;;;12.10;99.90;;;;;;5055744;28;19909;-73
2023/03/09 06:08:40;;;;;;;;;;;12.10;99.90;;;;;;5055295;28;19962;-72
2023/03/09 06:11:06;;;;;;;;;;;12.00;99.90;;;;;;5054514;28;20416;-72
2023/03/09 06:13:32;;;;;;;;;;;12.00;99.90;;;;;;5056058;28;19909;-74
2023/03/09 06:15:57;;;;;;;;;;;11.90;99.90;;;;;;5055571;28;19909;-72
2023/03/09 06:18:23;;;;;;;;;;;11.90;99.90;;;;;;5055638;28;19912;-72
2023/03/09 06:20:49;;;;;;;;;;;11.80;99.90;;;;;;5055449;28;19951;-72
2023/03/09 06:23:15;;;;;;;;;;;11.90;99.90;;;;;;5054973;28;20024;-73
2023/03/09 06:25:41;;;;;;;;;;;11.90;99.90;;;;;;5055187;28;19909;-72
2023/03/09 06:28:06;;;;;;;;;;;11.80;99.90;;;;;;5054977;28;19915;-73
2023/03/09 06:30:32;;;;;;;;;;;11.80;99.90;;;;;;5053856;28;19940;-75
2023/03/09 06:32:58;;;;;;;;;;;11.80;99.90;;;;;;5055486;28;19909;-73
2023/03/09 06:35:24;;;;;;;;;;;11.80;99.90;;;;;;5055283;28;20003;-73
2023/03/09 06:37:49;;;;;;;;;;;11.80;99.90;;;;;;5053993;28;19909;-73
2023/03/09 06:40:15;;;;;;;;;;;11.80;99.90;;;;;;5055065;28;19954;-73
2023/03/09 06:42:41;;;;;;;;;;;11.80;99.90;;;;;;5055603;28;19920;-71
2023/03/09 06:45:07;;;;;;;;;;;11.80;99.90;;;;;;5054915;28;19960;-75
2023/03/09 06:47:39;;;;;;;;;;;11.90;99.90;;;;;;5055143;28;19917;-72
2023/03/09 06:50:05;;;;;;;;;;;11.90;99.90;;;;;;5055627;28;20040;-74
2023/03/09 06:52:31;;;;;;;;;;;11.90;99.90;;;;;;5054784;28;19952;-72
2023/03/09 06:54:56;;;;;;;;;;;11.90;99.90;;;;;;5055336;28;20015;-71
2023/03/09 06:57:22;;;;;;;;;;;11.90;99.90;;;;;;5053244;28;19908;-72
2023/03/09 06:59:48;;;;;;;;;;;11.90;99.90;;;;;;5055003;28;19917;-73
2023/03/09 07:02:14;;;;;;;;;;;11.90;99.90;;;;;;5054949;28;20354;-72
2023/03/09 07:04:40;;;;;;;;;;;12.00;99.90;;;;;;5054776;28;19928;-74
2023/03/09 07:07:09;;;;;;;;;;;12.00;99.90;;;;;;5054648;28;20338;-74
2023/03/09 07:09:34;;;;;;;;;;;12.10;99.90;;;;;;5054523;28;19915;-72
2023/03/09 07:12:03;;;;;;;;;;;12.10;99.90;;;;;;5054487;28;20290;-74
2023/03/09 07:14:29;;;;;;;;;;;12.20;99.90;;;;;;5054361;28;19956;-73
2023/03/09 07:16:55;;;;;;;;;;;12.20;99.90;;;;;;5054364;28;19909;-74
2023/03/09 07:19:21;;;;;;;;;;;12.20;99.90;;;;;;5054241;28;19909;-73
2023/03/09 07:21:47;;;;;;;;;;;12.20;99.90;;;;;;5053925;28;19909;-72
2023/03/09 07:24:13;;;;;;;;;;;12.20;99.90;;;;;;5054701;28;20054;-73
2023/03/09 07:26:39;;;;;;;;;;;12.20;99.90;;;;;;5054946;28;19966;-73
2023/03/09 07:29:05;;;;;;;;;;;12.20;99.90;;;;;;5053033;28;20018;-74
2023/03/09 07:31:31;;;;;;;;;;;12.30;99.90;;;;;;5052692;28;19915;-74
2023/03/09 07:33:57;;;;;;;;;;;12.30;99.90;;;;;;5054617;28;19916;-74
2023/03/09 07:36:23;;;;;;;;;;;12.30;99.90;;;;;;5054647;28;19939;-75
2023/03/09 07:38:50;;;;;;;;;;;12.40;99.90;;;;;;5053142;28;19909;-72
2023/03/09 07:41:15;;;;;;;;;;;12.40;99.90;;;;;;5054479;28;19909;-72
2023/03/09 07:43:43;;;;;;;;;;;12.40;99.90;;;;;;5054205;28;19967;-74
2023/03/09 07:46:10;;;;;;;;;;;12.40;99.90;;;;;;5054468;28;19908;-74
2023/03/09 07:48:37;;;;;;;;;;;12.30;99.90;;;;;;5054474;28;19909;-72
2023/03/09 07:51:03;;;;;;;;;;;12.30;99.90;;;;;;5054358;28;19954;-72
2023/03/09 07:53:30;;;;;;;;;;;12.40;99.90;;;;;;5054409;28;19916;-71
2023/03/09 07:55:56;;;;;;;;;;;12.40;99.90;;;;;;5054071;28;19909;-74
2023/03/09 07:58:22;;;;;;;;;;;12.40;99.90;;;;;;5054139;28;19909;-73
2023/03/09 08:00:48;;;;;;;;;;;12.40;99.90;;;;;;5054655;28;19919;-76
2023/03/09 08:03:13;;;;;;;;;;;12.40;99.90;;;;;;5054256;28;19939;-72
2023/03/09 08:05:40;;;;;;;;;;;12.40;99.90;;;;;;5054503;28;19908;-72
2023/03/09 08:08:08;;;;;;;;;;;12.50;99.90;;;;;;5054163;28;20163;-71
2023/03/09 08:10:34;;;;;;;;;;;12.50;99.90;;;;;;5054215;28;19916;-75
2023/03/09 08:13:00;;;;;;;;;;;12.50;99.90;;;;;;5054464;28;20000;-75
2023/03/09 08:15:26;;;;;;;;;;;12.60;99.90;;;;;;5054442;28;20419;-72
2023/03/09 08:17:54;;;;;;;;;;;12.60;99.90;;;;;;5053857;28;20367;-72
2023/03/09 08:20:20;;;;;;;;;;;12.60;99.90;;;;;;5052621;28;19909;-74
2023/03/09 08:22:46;;;;;;;;;;;12.60;99.90;;;;;;5053874;28;20440;-72
2023/03/09 08:25:12;;;;;;;;;;;12.60;99.90;;;;;;5053797;28;19935;-73
2023/03/09 08:27:42;;;;;;;;;;;12.60;99.90;;;;;;5053745;28;19962;-72
2023/03/09 08:30:08;;;;;;;;;;;12.70;99.90;;;;;;5053474;28;19915;-73
2023/03/09 08:32:34;;;;;;;;;;;12.70;99.90;;;;;;5053553;28;19936;-72
2023/03/09 08:35:00;;;;;;;;;;;12.80;99.90;;;;;;5054165;28;19908;-73
2023/03/09 08:37:25;;;;;;;;;;;12.70;99.90;;;;;;5053216;28;19992;-73
2023/03/09 08:39:51;;;;;;;;;;;12.80;99.90;;;;;;5053531;28;20267;-74
2023/03/09 08:42:17;;;;;;;;;;;12.80;99.90;;;;;;5053605;28;19977;-74
2023/03/09 08:44:43;;;;;;;;;;;12.90;99.90;;;;;;5053245;28;19924;-72
2023/03/09 08:47:09;;;;;;;;;;;13.00;99.90;;;;;;5053806;28;19909;-72
2023/03/09 08:49:37;;;;;;;;;;;13.00;99.90;;;;;;5053872;28;20363;-72
2023/03/09 08:52:03;;;;;;;;;;;13.10;99.90;;;;;;5053680;28;19909;-73
2023/03/09 08:54:28;;;;;;;;;;;13.20;99.90;;;;;;5053757;28;19951;-73
2023/03/09 08:56:54;;;;;;;;;;;13.10;99.90;;;;;;5053036;28;19913;-72
2023/03/09 08:59:20;;;;;;;;;;;13.20;99.90;;;;;;5054069;28;19991;-74
2023/03/09 09:01:45;;;;;;;;;;;13.10;99.90;;;;;;5053621;28;19909;-73
2023/03/09 09:04:11;;;;;;;;;;;13.20;99.90;;;;;;5053742;28;19935;-73
2023/03/09 09:06:37;;;;;;;;;;;13.30;99.90;;;;;;5053342;28;19920;-73
2023/03/09 09:09:02;;;;;;;;;;;13.30;99.90;;;;;;5052962;28;19923;-74
2023/03/09 09:11:29;;;;;;;;;;;13.40;99.90;;;;;;5053411;28;20374;-73
2023/03/09 09:13:55;;;;;;;;;;;13.40;99.90;;;;;;5054244;28;19915;-72
2023/03/09 09:16:20;;;;;;;;;;;13.50;99.90;;;;;;5053608;28;19909;-75
2023/03/09 09:18:47;;;;;;;;;;;13.50;99.90;;;;;;5053696;28;20398;-72
2023/03/09 09:21:14;;;;;;;;;;;13.50;99.90;;;;;;5051924;28;19959;-73
2023/03/09 09:23:40;;;;;;;;;;;13.60;99.90;;;;;;5052976;28;19916;-73
2023/03/09 09:26:07;;;;;;;;;;;13.70;99.90;;;;;;5053155;28;19917;-72
2023/03/09 09:28:32;;;;;;;;;;;13.70;99.90;;;;;;5053211;28;20374;-73
2023/03/09 09:30:59;;;;;;;;;;;13.90;99.90;;;;;;5052989;28;19908;-74
2023/03/09 09:33:27;;;;;;;;;;;13.90;99.90;;;;;;5053754;28;20223;-73
2023/03/09 09:36:00;;;;;;;;;;;13.90;99.90;;;;;;5052770;28;19915;-73
2023/03/09 09:38:26;;;;;;;;;;;13.90;99.90;;;;;;5052808;28;19916;-74
2023/03/09 09:40:53;;;;;;;;;;;14.00;99.90;;;;;;5052625;28;19908;-73
2023/03/09 09:43:20;;;;;;;;;;;14.00;99.90;;;;;;5053705;28;20144;-73
2023/03/09 09:45:47;;;;;;;;;;;14.20;99.90;;;;;;5056116;28;19916;-74
2023/03/09 09:48:22;;;;;;;;;;;14.30;99.90;;;;;;5055915;28;19977;-76
2023/03/09 09:50:56;;;;;;;;;;;14.40;99.90;;;;;;5056216;28;19909;-74
2023/03/09 09:53:22;;;;;;;;;;;14.40;99.90;;;;;;5056158;28;19909;-74
2023/03/09 09:55:50;;;;;;;;;;;14.50;99.90;;;;;;5055706;28;20378;-73
2023/03/09 09:58:21;;;;;;;;;;;14.70;99.90;;;;;;5055867;28;20281;-74
2023/03/09 10:00:49;;;;;;;;;;;14.70;99.90;;;;;;5056384;28;19916;-73
2023/03/09 10:03:14;;;;;;;;;;;14.70;99.90;;;;;;5055603;28;20363;-74
2023/03/09 10:05:52;;;;;;;;;;;14.80;99.90;;;;;;5056263;28;19909;-73
2023/03/09 10:08:29;;;;;;;;;;;15.00;99.90;;;;;;5054547;28;19909;-74
2023/03/09 10:11:02;;;;;;;;;;;15.10;99.90;;;;;;5056366;28;19995;-74
2023/03/09 10:13:32;;;;;;;;;;;15.20;99.90;;;;;;5056768;28;19908;-74
2023/03/09 10:16:00;;;;;;;;;;;15.30;99.90;;;;;;5056607;28;19908;-73
2023/03/09 10:18:47;;;;;;;;;;;15.30;99.90;;;;;;5056158;28;19948;-74
2023/03/09 10:21:15;;;;;;;;;;;15.30;99.90;;;;;;5055836;28;19955;-74
2023/03/09 10:23:41;;;;;;;;;;;15.20;99.90;;;;;;5054330;28;20407;-73
2023/03/09 10:26:19;;;;;;;;;;;15.20;99.90;;;;;;5055423;28;19916;-73
2023/03/09 10:28:47;;;;;;;;;;;15.30;99.90;;;;;;5055203;28;20286;-74
2023/03/09 10:31:17;;;;;;;;;;;15.30;99.90;;;;;;5056109;28;20093;-74
2023/03/09 10:33:44;;;;;;;;;;;15.30;99.90;;;;;;5054662;28;19909;-74
2023/03/09 10:36:21;;;;;;;;;;;15.30;99.90;;;;;;5055993;28;19909;-74
2023/03/09 10:38:48;;;;;;;;;;;15.20;99.90;;;;;;5055424;28;19916;-74
2023/03/09 10:41:15;;;;;;;;;;;15.20;99.90;;;;;;5054986;28;19912;-73
2023/03/09 10:43:41;;;;;;;;;;;15.20;99.90;;;;;;5054471;28;19958;-73
2023/03/09 10:46:07;;;;;;;;;;;15.20;99.90;;;;;;5055644;28;19916;-74
2023/03/09 10:48:33;;;;;;;;;;;15.20;99.90;;;;;;5055068;28;19996;-74
2023/03/09 10:51:00;;;;;;;;;;;15.30;99.90;;;;;;5055327;28;19974;-74
2023/03/09 10:53:29;;;;;;;;;;;15.30;99.90;;;;;;5055378;28;20003;-74
2023/03/09 10:56:00;;;;;;;;;;;15.40;99.90;;;;;;5057710;28;20019;-74
2023/03/09 10:58:26;;;;;;;;;;;15.40;99.90;;;;;;5054858;28;19982;-74
2023/03/09 11:00:54;;;;;;;;;;;15.50;99.90;;;;;;5054674;28;19909;-74
2023/03/09 11:03:25;;;;;;;;;;;15.60;99.90;;;;;;5054717;28;19916;-73
2023/03/09 11:05:51;;;;;;;;;;;15.60;99.90;;;;;;5054946;28;19955;-75
2023/03/09 11:08:25;;;;;;;;;;;15.70;99.90;;;;;;5054757;28;19908;-77
2023/03/09 11:11:00;;;;;;;;;;;15.70;99.90;;;;;;5054448;28;19913;-73
2023/03/09 11:13:25;;;;;;;;;;;15.70;99.90;;;;;;5054570;28;20004;-74
2023/03/09 11:16:11;;;;;;;;;;;15.60;99.90;;;;;;5055000;28;19944;-77
2023/03/09 11:18:37;;;;;;;;;;;15.70;99.90;;;;;;5053857;28;19995;-74
2023/03/09 11:21:03;;;;;;;;;;;15.70;99.90;;;;;;5055371;28;20291;-74
2023/03/09 11:23:28;;;;;;;;;;;15.80;99.90;;;;;;5053918;28;20042;-73
2023/03/09 11:26:13;;;;;;;;;;;15.70;99.90;;;;;;5052884;28;19953;-75
2023/03/09 11:28:54;;;;;;;;;;;15.80;99.90;;;;;;5054409;28;20278;-74
2023/03/09 11:31:31;;;;;;;;;;;15.80;99.90;;;;;;5054125;28;19909;-75
2023/03/09 11:33:58;;;;;;;;;;;15.80;99.90;;;;;;5053771;28;19974;-73
2023/03/09 11:36:29;;;;;;;;;;;15.80;99.90;;;;;;5054492;28;19913;-76
2023/03/09 11:38:55;;;;;;;;;;;15.90;99.90;;;;;;5053404;28;19991;-75
2023/03/09 11:41:29;;;;;;;;;;;16.00;99.90;;;;;;5053636;28;19909;-74
2023/03/09 11:44:05;;;;;;;;;;;16.10;99.90;;;;;;5054027;28;19958;-74
2023/03/09 11:46:31;;;;;;;;;;;16.10;99.90;;;;;;5054255;28;19997;-74
2023/03/09 11:49:06;;;;;;;;;;;16.20;99.90;;;;;;5052713;28;19916;-73
2023/03/09 11:51:35;;;;;;;;;;;16.30;99.90;;;;;;5054220;28;19970;-74
2023/03/09 11:54:01;;;;;;;;;;;16.40;99.90;;;;;;5053695;28;19913;-74
2023/03/09 11:56:28;;;;;;;;;;;16.30;99.90;;;;;;5053438;28;19995;-77
2023/03/09 11:58:59;;;;;;;;;;;16.30;99.90;;;;;;5052263;28;19909;-74
2023/03/09 12:01:29;;;;;;;;;;;16.40;99.90;;;;;;5056044;28;20044;-74
2023/03/09 12:03:57;;;;;;;;;;;16.30;99.90;;;;;;5055697;28;20014;-74
2023/03/09 12:06:42;;;;;;;;;;;16.30;99.90;;;;;;5054688;28;19998;-77
2023/03/09 12:09:15;;;;;;;;;;;16.20;99.90;;;;;;5054893;28;19916;-74
2023/03/09 12:11:43;;;;;;;;;;;16.20;99.90;;;;;;5053731;28;19909;-74
2023/03/09 12:14:16;;;;;;;;;;;16.20;99.90;;;;;;5053954;28;19912;-73
2023/03/09 12:16:43;;;;;;;;;;;16.40;99.90;;;;;;5053690;28;20379;-75
2023/03/09 12:19:09;;;;;;;;;;;16.30;99.90;;;;;;5053335;28;20004;-73
2023/03/09 12:21:37;;;;;;;;;;;16.30;99.90;;;;;;5052627;28;19952;-74
2023/03/09 12:24:17;;;;;;;;;;;16.40;99.90;;;;;;5052049;28;20007;-74
2023/03/09 12:26:55;;;;;;;;;;;16.50;99.90;;;;;;5052543;28;20210;-74
2023/03/09 12:29:22;;;;;;;;;;;16.60;99.90;;;;;;5053917;28;19909;-74
2023/03/09 12:32:06;;;;;;;;;;;16.70;99.90;;;;;;5053777;28;20011;-74
2023/03/09 12:34:39;;;;;;;;;;;16.70;99.90;;;;;;5053694;28;19909;-76
2023/03/09 12:37:23;;;;;;;;;;;16.70;99.90;;;;;;5053134;28;20308;-74
2023/03/09 12:39:57;;;;;;;;;;;16.80;99.90;;;;;;5052831;28;19983;-74
2023/03/09 12:42:25;;;;;;;;;;;16.80;99.90;;;;;;5053145;28;19908;-77
2023/03/09 12:44:51;;;;;;;;;;;16.70;99.90;;;;;;5053207;28;20274;-74
2023/03/09 12:47:23;;;;;;;;;;;16.70;99.90;;;;;;5054378;28;19975;-74
2023/03/09 12:49:49;;;;;;;;;;;16.70;99.90;;;;;;5053178;28;19912;-77
2023/03/09 12:52:28;;;;;;;;;;;16.70;99.90;;;;;;5052786;28;19949;-74
2023/03/09 12:54:59;;;;;;;;;;;16.70;99.90;;;;;;5053382;28;19912;-76
2023/03/09 12:57:25;;;;;;;;;;;16.70;99.90;;;;;;5053226;28;20417;-78
2023/03/09 12:59:51;;;;;;;;;;;16.60;99.90;;;;;;5052759;28;19947;-74
2023/03/09 13:02:24;;;;;;;;;;;16.60;99.90;;;;;;5052896;28;19914;-73
2023/03/09 13:05:08;;;;;;;;;;;16.60;99.90;;;;;;5053383;28;19912;-73
2023/03/09 13:07:34;;;;;;;;;;;16.50;99.90;;;;;;5053200;28;19958;-74
2023/03/09 13:10:00;;;;;;;;;;;16.40;99.90;;;;;;5052510;28;19908;-74
2023/03/09 13:12:30;;;;;;;;;;;16.40;99.90;;;;;;5052678;28;19971;-74
2023/03/09 13:14:56;;;;;;;;;;;16.30;99.90;;;;;;5051549;28;19908;-76
2023/03/09 13:17:31;;;;;;;;;;;16.20;99.90;;;;;;5054155;28;19920;-74
2023/03/09 13:20:17;;;;;;;;;;;16.20;99.90;;;;;;5055467;28;19909;-73
2023/03/09 13:22:43;;;;;;;;;;;16.10;99.90;;;;;;5055609;28;19917;-74
2023/03/09 13:25:29;;;;;;;;;;;16.10;99.90;;;;;;5056008;28;19972;-74
2023/03/09 13:28:00;;;;;;;;;;;16.10;99.90;;;;;;5055958;28;19936;-75
2023/03/09 13:30:26;;;;;;;;;;;16.00;99.90;;;;;;5056580;28;19909;-76
2023/03/09 13:32:55;;;;;;;;;;;16.00;99.90;;;;;;5056723;28;20336;-77
2023/03/09 13:35:27;;;;;;;;;;;15.90;99.90;;;;;;5056617;28;19915;-74
2023/03/09 13:37:54;;;;;;;;;;;15.90;99.90;;;;;;5055382;28;19917;-76
2023/03/09 13:40:29;;;;;;;;;;;15.90;99.90;;;;;;5056846;28;19909;-74
2023/03/09 13:42:56;;;;;;;;;;;15.90;99.90;;;;;;5056445;28;19952;-74
2023/03/09 13:45:23;;;;;;;;;;;15.90;99.90;;;;;;5056353;28;19978;-73
2023/03/09 13:47:53;;;;;;;;;;;16.00;99.90;;;;;;5054534;28;19971;-76
2023/03/09 13:50:19;;;;;;;;;;;15.90;99.90;;;;;;5056402;28;19908;-74
2023/03/09 13:53:01;;;;;;;;;;;15.90;99.90;;;;;;5056549;28;19909;-75
2023/03/09 13:55:27;;;;;;;;;;;15.90;99.90;;;;;;5056302;28;20417;-74
2023/03/09 13:57:54;;;;;;;;;;;16.00;99.90;;;;;;5056793;28;20282;-74
2023/03/09 14:00:19;;;;;;;;;;;16.00;99.90;;;;;;5054846;28;20294;-75
2023/03/09 14:02:46;;;;;;;;;;;16.00;99.90;;;;;;5056257;28;19969;-78
2023/03/09 14:05:14;;;;;;;;;;;16.00;99.90;;;;;;5056194;28;19913;-73
2023/03/09 14:07:52;;;;;;;;;;;15.90;99.90;;;;;;5056024;28;20004;-74
2023/03/09 14:10:31;;;;;;;;;;;16.00;99.90;;;;;;5056301;28;19909;-75
2023/03/09 14:13:02;;;;;;;;;;;16.00;99.90;;;;;;5056277;28;20354;-74
2023/03/09 14:15:28;;;;;;;;;;;16.00;99.90;;;;;;5056065;28;20284;-73
2023/03/09 14:17:53;;;;;;;;;;;15.90;99.90;;;;;;5055919;28;20000;-74
2023/03/09 14:20:20;;;;;;;;;;;15.80;99.90;;;;;;5055356;28;20279;-74
2023/03/09 14:22:46;;;;;;;;;;;15.80;99.90;;;;;;5055239;28;19917;-76